Time;durP1;ratioP1;P1;durP2;ratioP2;P2;SDS_P1;SDS_P2;PMS_P1;PMS_P2;Temp;Humidity;BMP_temperature;BMP_pressure;BME280_temperature;BME280_humidity;BME280_pressure;Samples;Min_cycle;Max_cycle;Signal;HPM_P1;HPM_P2
2023/11/16 00:00:45;;;;;;;3.33;0.75;;;;;;;;;;10186807;29;20099;-81
2023/11/16 00:05:49;;;;;;;5.40;1.23;;;;;;;;;;10180666;29;20056;-81
2023/11/16 00:10:56;;;;;;;2.95;0.80;;;;;;;;;;10181110;29;20071;-81
2023/11/16 00:16:00;;;;;;;3.30;0.90;;;;;;;;;;10167199;23;20056;-76
2023/11/16 00:21:04;;;;;;;2.95;0.77;;;;;;;;;;10143045;29;20056;-77
2023/11/16 00:26:11;;;;;;;2.38;0.80;;;;;;;;;;10124049;29;20055;-76
2023/11/16 00:31:18;;;;;;;3.45;0.95;;;;;;;;;;10133808;29;20514;-77
2023/11/16 00:36:23;;;;;;;1.27;0.60;;;;;;;;;;10114501;29;20480;-76
2023/11/16 00:41:28;;;;;;;3.20;0.75;;;;;;;;;;10128706;29;20059;-76
2023/11/16 00:46:32;;;;;;;2.50;0.70;;;;;;;;;;10130567;29;20052;-77
2023/11/16 00:51:35;;;;;;;2.05;0.80;;;;;;;;;;10118732;29;20052;-77
2023/11/16 00:56:40;;;;;;;1.13;0.50;;;;;;;;;;10131122;29;20044;-76
2023/11/16 01:01:44;;;;;;;7.03;1.52;;;;;;;;;;10121598;29;20048;-77
2023/11/16 01:06:48;;;;;;;2.20;0.70;;;;;;;;;;10128696;29;20414;-76
2023/11/16 01:11:53;;;;;;;1.67;1.05;;;;;;;;;;10123774;29;20048;-76
2023/11/16 01:17:03;;;;;;;3.65;0.80;;;;;;;;;;10143531;29;20049;-76
2023/11/16 01:22:07;;;;;;;1.88;0.60;;;;;;;;;;10121545;29;20041;-77
2023/11/16 01:27:18;;;;;;;0.73;0.63;;;;;;;;;;10139211;29;20052;-77
2023/11/16 01:32:22;;;;;;;1.70;0.73;;;;;;;;;;10123634;29;20044;-77
2023/11/16 01:37:25;;;;;;;1.00;0.55;;;;;;;;;;10125483;29;20537;-77
2023/11/16 01:42:30;;;;;;;3.03;0.70;;;;;;;;;;10119952;29;20060;-76
2023/11/16 01:47:35;;;;;;;5.35;1.13;;;;;;;;;;10147027;29;20049;-76
2023/11/16 01:52:39;;;;;;;2.78;1.17;;;;;;;;;;10141107;29;20683;-77
2023/11/16 01:57:43;;;;;;;1.70;0.65;;;;;;;;;;10144619;29;20572;-76
2023/11/16 02:02:49;;;;;;;1.88;0.70;;;;;;;;;;10116835;29;20148;-76
2023/11/16 02:07:53;;;;;;;2.00;0.77;;;;;;;;;;10116942;29;20059;-76
2023/11/16 02:12:59;;;;;;;2.20;1.05;;;;;;;;;;10109935;29;20049;-76
2023/11/16 02:18:02;;;;;;;1.40;0.45;;;;;;;;;;10131252;29;20052;-76
2023/11/16 02:23:07;;;;;;;2.78;0.57;;;;;;;;;;10133410;29;20466;-76
2023/11/16 02:28:15;;;;;;;3.92;1.10;;;;;;;;;;10145177;29;20049;-77
2023/11/16 02:33:19;;;;;;;1.20;0.45;;;;;;;;;;10148335;29;20082;-77
2023/11/16 02:38:25;;;;;;;1.75;0.68;;;;;;;;;;10115181;29;20144;-77
2023/11/16 02:43:29;;;;;;;1.90;0.80;;;;;;;;;;10143337;29;20056;-77
2023/11/16 02:48:33;;;;;;;1.33;0.77;;;;;;;;;;10128539;29;20064;-77
2023/11/16 02:53:37;;;;;;;2.05;0.60;;;;;;;;;;10146371;29;20127;-77
2023/11/16 02:58:43;;;;;;;4.28;0.93;;;;;;;;;;10130932;29;20072;-77
2023/11/16 03:03:47;;;;;;;3.45;0.80;;;;;;;;;;10126474;29;20060;-77
2023/11/16 03:08:52;;;;;;;1.67;0.82;;;;;;;;;;10137558;29;20132;-77
2023/11/16 03:13:55;;;;;;;2.10;0.73;;;;;;;;;;10116224;29;20143;-77
2023/11/16 03:19:00;;;;;;;1.42;0.57;;;;;;;;;;10135554;29;20055;-77
2023/11/16 03:24:05;;;;;;;1.13;0.60;;;;;;;;;;10132601;29;20048;-77
2023/11/16 03:29:09;;;;;;;2.33;0.57;;;;;;;;;;10147353;29;20041;-77
2023/11/16 03:34:13;;;;;;;1.15;0.60;;;;;;;;;;10153320;29;20059;-78
2023/11/16 03:39:18;;;;;;;1.70;0.82;;;;;;;;;;10135457;29;20438;-77
2023/11/16 03:44:22;;;;;;;1.70;0.90;;;;;;;;;;10122832;29;20056;-77
2023/11/16 03:49:25;;;;;;;1.70;0.75;;;;;;;;;;10131601;29;20116;-77
2023/11/16 03:54:30;;;;;;;1.55;0.70;;;;;;;;;;10140058;29;20047;-76
2023/11/16 03:59:33;;;;;;;0.70;0.40;;;;;;;;;;10143144;29;20048;-77
2023/11/16 04:04:37;;;;;;;2.83;0.80;;;;;;;;;;10124887;29;20167;-77
2023/11/16 04:09:42;;;;;;;2.22;0.60;;;;;;;;;;10123596;29;20060;-77
2023/11/16 04:14:45;;;;;;;2.75;0.60;;;;;;;;;;10133578;29;20530;-77
2023/11/16 04:19:52;;;;;;;1.92;0.80;;;;;;;;;;10126352;29;20172;-77
2023/11/16 04:24:57;;;;;;;1.55;0.80;;;;;;;;;;10130829;29;20065;-76
2023/11/16 04:30:00;;;;;;;2.28;0.80;;;;;;;;;;10151328;29;20561;-76
2023/11/16 04:35:08;;;;;;;2.28;0.60;;;;;;;;;;10148557;29;20048;-76
2023/11/16 04:40:14;;;;;;;1.42;0.80;;;;;;;;;;10143949;29;20075;-76
2023/11/16 04:45:19;;;;;;;2.72;0.85;;;;;;;;;;10121339;29;20044;-76
2023/11/16 04:50:22;;;;;;;2.88;0.90;;;;;;;;;;10149110;29;20584;-76
2023/11/16 04:55:27;;;;;;;2.83;0.73;;;;;;;;;;10144394;29;20573;-76
2023/11/16 05:00:31;;;;;;;3.92;1.17;;;;;;;;;;10140382;29;20052;-76
2023/11/16 05:05:35;;;;;;;4.95;0.90;;;;;;;;;;10144882;29;20601;-76
2023/11/16 05:10:40;;;;;;;4.55;0.80;;;;;;;;;;10128098;29;20073;-77
2023/11/16 05:15:45;;;;;;;3.58;0.82;;;;;;;;;;10154220;29;20048;-76
2023/11/16 05:20:48;;;;;;;1.30;0.63;;;;;;;;;;10109606;29;20100;-77
2023/11/16 05:25:53;;;;;;;0.77;0.50;;;;;;;;;;10138330;29;20053;-76
2023/11/16 05:30:56;;;;;;;1.90;0.60;;;;;;;;;;10123661;29;20052;-76
2023/11/16 05:36:00;;;;;;;1.98;0.77;;;;;;;;;;10130358;29;20176;-76
2023/11/16 05:41:06;;;;;;;1.95;0.60;;;;;;;;;;10136424;29;20295;-76
2023/11/16 05:46:11;;;;;;;2.88;0.95;;;;;;;;;;10122723;29;20048;-76
2023/11/16 05:51:15;;;;;;;4.00;0.60;;;;;;;;;;10120185;29;20074;-76
2023/11/16 05:56:21;;;;;;;1.88;0.65;;;;;;;;;;10145778;29;20500;-76
2023/11/16 06:01:25;;;;;;;2.35;0.70;;;;;;;;;;10143050;29;20112;-76
2023/11/16 06:06:28;;;;;;;1.58;0.98;;;;;;;;;;10147968;29;20513;-76
2023/11/16 06:11:33;;;;;;;2.63;1.20;;;;;;;;;;10148746;29;20055;-76
2023/11/16 06:16:43;;;;;;;1.88;1.17;;;;;;;;;;10396250;23;20751;-80
2023/11/16 06:21:46;;;;;;;3.38;1.15;;;;;;;;;;10137956;29;20610;-80
2023/11/16 06:26:51;;;;;;;2.58;1.10;;;;;;;;;;10164039;29;20060;-80
2023/11/16 06:31:54;;;;;;;2.53;0.98;;;;;;;;;;10160425;29;20060;-80
2023/11/16 06:36:58;;;;;;;1.30;0.77;;;;;;;;;;10161702;29;20080;-80
2023/11/16 06:42:03;;;;;;;2.10;1.17;;;;;;;;;;10155488;29;20056;-81
2023/11/16 06:47:06;;;;;;;2.20;1.10;;;;;;;;;;10165484;29;20055;-80
2023/11/16 06:52:13;;;;;;;5.53;2.25;;;;;;;;;;10139204;29;20068;-81
2023/11/16 06:57:18;;;;;;;5.80;3.10;;;;;;;;;;10166117;29;20115;-80
2023/11/16 07:02:22;;;;;;;6.53;3.00;;;;;;;;;;10147595;29;20143;-81
2023/11/16 07:07:25;;;;;;;3.63;1.75;;;;;;;;;;10163077;29;20135;-80
2023/11/16 07:12:30;;;;;;;1.63;1.33;;;;;;;;;;10144636;29;20062;-83
2023/11/16 07:17:33;;;;;;;4.95;1.67;;;;;;;;;;10164801;29;20143;-83
2023/11/16 07:22:37;;;;;;;2.85;1.40;;;;;;;;;;10145012;29;20135;-83
2023/11/16 07:27:42;;;;;;;2.85;1.35;;;;;;;;;;10171078;29;20105;-83
2023/11/16 07:32:46;;;;;;;6.43;2.67;;;;;;;;;;10174388;29;20083;-83
2023/11/16 07:37:49;;;;;;;4.80;2.50;;;;;;;;;;10144675;29;20095;-83
2023/11/16 07:42:55;;;;;;;3.30;1.65;;;;;;;;;;10155699;29;20054;-83
2023/11/16 07:48:03;;;;;;;4.43;2.10;;;;;;;;;;10151639;29;20059;-83
2023/11/16 07:53:10;;;;;;;2.88;1.00;;;;;;;;;;10143670;29;20075;-84
2023/11/16 07:58:14;;;;;;;2.70;1.10;;;;;;;;;;10151017;29;20576;-82
2023/11/16 08:08:42;;;;;;;2.45;1.02;;;;;;;;;;10163015;29;20059;-83
2023/11/16 08:13:47;;;;;;;2.42;0.70;;;;;;;;;;10153738;29;20141;-83
2023/11/16 08:18:53;;;;;;;2.17;0.77;;;;;;;;;;10150908;29;20091;-83
2023/11/16 08:23:59;;;;;;;3.90;0.98;;;;;;;;;;10165162;29;20061;-83
2023/11/16 08:29:04;;;;;;;;;;;;;;;;;;10147682;29;20056;-84
2023/11/16 08:34:11;;;;;;;2.33;1.00;;;;;;;;;;10161324;29;19927;-83
2023/11/16 08:39:15;;;;;;;3.08;1.15;;;;;;;;;;10164016;29;20527;-83
2023/11/16 08:44:22;;;;;;;3.15;0.95;;;;;;;;;;10153428;29;20119;-83
2023/11/16 08:49:31;;;;;;;4.20;0.80;;;;;;;;;;10169735;29;20051;-83
2023/11/16 08:54:35;;;;;;;2.38;0.90;;;;;;;;;;10172259;29;20055;-84
2023/11/16 08:59:59;;;;;;;1.42;0.80;;;;;;;;;;10165418;29;20139;-83
2023/11/16 09:05:06;;;;;;;2.92;0.93;;;;;;;;;;10146107;29;20459;-83
2023/11/16 09:10:13;;;;;;;4.20;0.95;;;;;;;;;;10157313;29;20692;-84
2023/11/16 09:15:18;;;;;;;2.13;1.10;;;;;;;;;;10143699;29;20063;-83
2023/11/16 09:20:24;;;;;;;3.30;1.20;;;;;;;;;;10156079;29;20107;-84
2023/11/16 09:25:30;;;;;;;3.05;1.10;;;;;;;;;;10155656;29;20052;-84
2023/11/16 09:30:38;;;;;;;2.60;1.00;;;;;;;;;;10139173;29;20115;-83
2023/11/16 09:35:42;;;;;;;5.55;1.48;;;;;;;;;;10141821;29;20570;-83
2023/11/16 09:40:47;;;;;;;2.67;0.80;;;;;;;;;;10169492;29;20139;-83
2023/11/16 09:45:53;;;;;;;2.15;0.80;;;;;;;;;;10142913;29;20556;-83
2023/11/16 09:50:57;;;;;;;2.33;1.10;;;;;;;;;;10148628;29;20051;-84
2023/11/16 09:56:04;;;;;;;1.90;0.80;;;;;;;;;;10146862;29;20052;-83
2023/11/16 10:01:11;;;;;;;1.95;1.10;;;;;;;;;;10148499;29;20238;-84
2023/11/16 10:06:20;;;;;;;3.22;1.08;;;;;;;;;;10130111;29;20063;-84
2023/11/16 10:11:24;;;;;;;2.20;0.95;;;;;;;;;;10147732;29;20055;-84
2023/11/16 10:16:30;;;;;;;2.13;0.90;;;;;;;;;;10160615;29;20058;-83
2023/11/16 10:21:34;;;;;;;4.17;1.00;;;;;;;;;;10143702;29;20422;-83
2023/11/16 10:26:39;;;;;;;1.83;1.05;;;;;;;;;;10152077;29;20052;-84
2023/11/16 10:31:46;;;;;;;5.20;1.30;;;;;;;;;;10156754;29;20064;-84
2023/11/16 10:36:50;;;;;;;3.03;1.30;;;;;;;;;;10163635;29;20102;-83
2023/11/16 10:41:54;;;;;;;3.10;1.23;;;;;;;;;;10148149;29;20508;-83
2023/11/16 10:47:00;;;;;;;2.28;1.00;;;;;;;;;;10176998;29;20136;-83
2023/11/16 10:52:05;;;;;;;3.33;0.93;;;;;;;;;;10155643;29;20068;-83
2023/11/16 10:57:13;;;;;;;5.07;0.90;;;;;;;;;;10151675;29;20048;-83
2023/11/16 11:02:18;;;;;;;3.20;1.00;;;;;;;;;;10154291;29;20473;-83
2023/11/16 11:07:23;;;;;;;2.08;1.35;;;;;;;;;;10155995;29;20066;-83
2023/11/16 11:12:28;;;;;;;0.98;0.73;;;;;;;;;;10160032;29;20056;-84
2023/11/16 11:17:37;;;;;;;2.35;0.90;;;;;;;;;;10149586;29;20103;-83
2023/11/16 11:22:43;;;;;;;2.97;0.57;;;;;;;;;;10162227;29;20048;-83
2023/11/16 11:27:46;;;;;;;4.13;0.65;;;;;;;;;;10154966;29;20044;-84
2023/11/16 11:32:59;;;;;;;2.83;1.00;;;;;;;;;;10163079;29;20075;-84
2023/11/16 11:38:18;;;;;;;0.77;0.60;;;;;;;;;;10154338;29;20480;-83
2023/11/16 11:43:22;;;;;;;1.83;0.80;;;;;;;;;;10177655;29;20059;-83
2023/11/16 11:48:29;;;;;;;4.18;1.45;;;;;;;;;;10145200;29;20071;-83
2023/11/16 11:53:33;;;;;;;3.53;1.40;;;;;;;;;;10160793;29;20550;-84
2023/11/16 11:58:41;;;;;;;4.57;1.90;;;;;;;;;;10171834;29;20052;-84
2023/11/16 12:03:55;;;;;;;4.43;1.30;;;;;;;;;;10144582;29;20622;-83
2023/11/16 12:08:59;;;;;;;3.30;0.95;;;;;;;;;;10142885;29;20108;-83
2023/11/16 12:14:07;;;;;;;3.80;1.63;;;;;;;;;;10161301;29;20076;-84
2023/11/16 12:19:21;;;;;;;3.83;1.27;;;;;;;;;;10186166;29;20055;-85
2023/11/16 12:24:27;;;;;;;4.20;1.67;;;;;;;;;;10167828;29;20044;-85
2023/11/16 12:29:30;;;;;;;3.75;1.90;;;;;;;;;;10142945;29;20479;-85
2023/11/16 12:34:36;;;;;;;4.07;1.48;;;;;;;;;;10156504;29;20090;-85
2023/11/16 12:39:39;;;;;;;3.03;1.80;;;;;;;;;;10134568;29;20135;-84
2023/11/16 12:44:44;;;;;;;4.55;1.70;;;;;;;;;;10157492;29;20419;-84
2023/11/16 12:49:49;;;;;;;3.55;1.30;;;;;;;;;;10156253;29;20055;-86
2023/11/16 12:54:52;;;;;;;1.98;0.90;;;;;;;;;;10147243;29;20428;-85
2023/11/16 12:59:56;;;;;;;3.30;1.38;;;;;;;;;;10154128;29;20094;-85
2023/11/16 13:05:00;;;;;;;3.45;1.40;;;;;;;;;;10143572;29;20579;-85
2023/11/16 13:10:05;;;;;;;3.83;1.70;;;;;;;;;;10150630;29;20052;-83
2023/11/16 13:15:09;;;;;;;4.15;1.60;;;;;;;;;;10169984;29;20052;-84
2023/11/16 13:20:14;;;;;;;2.90;1.63;;;;;;;;;;10163608;29;20075;-85
2023/11/16 13:25:18;;;;;;;2.75;2.00;;;;;;;;;;10134008;29;20512;-84
2023/11/16 13:30:21;;;;;;;3.80;2.10;;;;;;;;;;10149626;29;20044;-84
2023/11/16 13:35:26;;;;;;;3.55;1.95;;;;;;;;;;10134406;29;20056;-84
2023/11/16 13:40:29;;;;;;;3.65;2.00;;;;;;;;;;10145507;29;20062;-85
2023/11/16 13:45:33;;;;;;;3.70;2.13;;;;;;;;;;10151181;29;20693;-84
2023/11/16 13:50:39;;;;;;;5.72;2.33;;;;;;;;;;10149062;29;20047;-84
2023/11/16 13:55:42;;;;;;;4.32;2.10;;;;;;;;;;10153902;29;20131;-84
2023/11/16 14:00:46;;;;;;;3.35;1.98;;;;;;;;;;10133701;29;20044;-84
2023/11/16 14:05:50;;;;;;;3.42;1.88;;;;;;;;;;10143237;29;20099;-85
2023/11/16 14:10:55;;;;;;;3.67;1.90;;;;;;;;;;10148723;29;20217;-84
2023/11/16 14:16:04;;;;;;;2.55;1.60;;;;;;;;;;10166624;29;20080;-85
2023/11/16 14:21:10;;;;;;;2.47;1.35;;;;;;;;;;10140419;29;20682;-85
2023/11/16 14:26:13;;;;;;;2.60;1.27;;;;;;;;;;10136879;29;20127;-85
2023/11/16 14:31:16;;;;;;;1.67;1.20;;;;;;;;;;10176873;29;20419;-85
2023/11/16 14:36:25;;;;;;;1.08;0.90;;;;;;;;;;10180962;29;20464;-85
2023/11/16 14:41:30;;;;;;;1.23;0.80;;;;;;;;;;10167960;29;20060;-84
2023/11/16 14:46:33;;;;;;;0.80;0.80;;;;;;;;;;10170947;29;20052;-85
2023/11/16 14:51:48;;;;;;;2.17;1.20;;;;;;;;;;10172227;29;20052;-85
2023/11/16 14:56:51;;;;;;;1.60;1.10;;;;;;;;;;10168329;29;20479;-85
2023/11/16 15:01:58;;;;;;;1.30;1.00;;;;;;;;;;10143030;29;20044;-85
2023/11/16 15:07:03;;;;;;;2.25;1.67;;;;;;;;;;10153810;29;20070;-85
2023/11/16 15:12:07;;;;;;;2.42;1.83;;;;;;;;;;10145510;29;20048;-86
2023/11/16 15:17:13;;;;;;;4.35;2.28;;;;;;;;;;10147827;29;20143;-85
2023/11/16 15:22:18;;;;;;;2.85;1.80;;;;;;;;;;10171670;29;20118;-85
2023/11/16 15:27:21;;;;;;;4.03;1.85;;;;;;;;;;10149939;29;20142;-85
2023/11/16 15:32:24;;;;;;;1.92;1.38;;;;;;;;;;10173483;29;20148;-84
2023/11/16 15:37:29;;;;;;;2.95;1.65;;;;;;;;;;10146501;29;20107;-85
2023/11/16 15:42:33;;;;;;;3.35;1.92;;;;;;;;;;10161252;29;20456;-85
2023/11/16 15:47:36;;;;;;;2.97;1.92;;;;;;;;;;10150158;29;20078;-85
2023/11/16 15:52:42;;;;;;;6.50;4.18;;;;;;;;;;10167461;29;20527;-85
2023/11/16 15:57:46;;;;;;;4.82;3.10;;;;;;;;;;10148445;29;20070;-85
2023/11/16 16:02:51;;;;;;;4.72;1.98;;;;;;;;;;10139377;29;20052;-85
2023/11/16 16:07:56;;;;;;;3.80;2.13;;;;;;;;;;10160567;29;20086;-85
2023/11/16 16:12:59;;;;;;;3.75;2.00;;;;;;;;;;10138644;29;20075;-85
2023/11/16 16:18:03;;;;;;;3.10;2.05;;;;;;;;;;10169174;29;20139;-85
2023/11/16 16:23:08;;;;;;;2.38;1.30;;;;;;;;;;10168571;29;20058;-85
2023/11/16 16:28:11;;;;;;;2.63;2.03;;;;;;;;;;10141252;29;20043;-84
2023/11/16 16:33:14;;;;;;;2.53;1.80;;;;;;;;;;10153013;29;20048;-86
2023/11/16 16:38:19;;;;;;;4.20;1.85;;;;;;;;;;10143433;29;20622;-86
2023/11/16 16:43:23;;;;;;;4.20;2.00;;;;;;;;;;10157506;29;20079;-87
2023/11/16 16:48:26;;;;;;;3.53;1.83;;;;;;;;;;10156599;29;20055;-87
2023/11/16 16:53:31;;;;;;;2.97;1.95;;;;;;;;;;10161440;29;20167;-86
2023/11/16 16:58:34;;;;;;;3.25;2.28;;;;;;;;;;10182174;29;20122;-86
2023/11/16 17:03:39;;;;;;;4.10;2.50;;;;;;;;;;10176635;29;20086;-86
2023/11/16 17:08:46;;;;;;;4.88;2.45;;;;;;;;;;10154503;29;20111;-86
2023/11/16 17:13:52;;;;;;;;;;;;;;;;;;10154447;29;20123;-86
2023/11/16 17:18:55;;;;;;;2.10;1.67;;;;;;;;;;10159118;29;20708;-86
2023/11/16 17:24:01;;;;;;;2.90;1.80;;;;;;;;;;10149616;29;20055;-87
2023/11/16 17:29:05;;;;;;;5.97;2.30;;;;;;;;;;10171817;29;20083;-85
2023/11/16 17:34:10;;;;;;;2.80;1.60;;;;;;;;;;10161822;29;20039;-86
2023/11/16 17:39:15;;;;;;;3.93;1.47;;;;;;;;;;10173431;29;20044;-86
2023/11/16 17:44:20;;;;;;;1.98;1.38;;;;;;;;;;10177742;29;20052;-86
2023/11/16 17:49:23;;;;;;;2.55;1.33;;;;;;;;;;10156255;29;20159;-86
2023/11/16 17:54:28;;;;;;;3.40;1.52;;;;;;;;;;10164834;29;20048;-86
2023/11/16 17:59:32;;;;;;;1.70;1.30;;;;;;;;;;10175762;29;20055;-87
2023/11/16 18:04:38;;;;;;;2.38;1.55;;;;;;;;;;10162974;29;20766;-87
2023/11/16 18:09:44;;;;;;;2.97;1.23;;;;;;;;;;10151712;29;20537;-86
2023/11/16 18:26:54;;;;;;;;;;;;;;;;;;;;;
2023/11/16 18:32:50;;;;;;;1.27;1.08;;;;;;;;;;10127741;29;20506;-78
2023/11/16 18:38:10;;;;;;;1.58;1.20;;;;;;;;;;9985217;29;20068;-77
2023/11/16 18:43:19;;;;;;;3.17;1.50;;;;;;;;;;10135615;29;20048;-77
2023/11/16 18:48:26;;;;;;;1.48;1.20;;;;;;;;;;10128268;29;20061;-77
2023/11/16 18:54:05;;;;;;;1.77;1.30;;;;;;;;;;10051710;29;20402;-77
2023/11/16 18:59:28;;;;;;;2.10;1.50;;;;;;;;;;10136218;29;20052;-77
2023/11/16 19:04:43;;;;;;;1.60;1.20;;;;;;;;;;10149596;29;20084;-77
2023/11/16 19:09:51;;;;;;;1.42;1.20;;;;;;;;;;10148599;29;20079;-77
2023/11/16 19:15:10;;;;;;;2.15;1.33;;;;;;;;;;10138680;29;20057;-77
2023/11/16 19:20:35;;;;;;;1.98;1.48;;;;;;;;;;10138304;29;20064;-77
2023/11/16 19:26:06;;;;;;;;;;;;;;;;;;;;;
2023/11/16 19:31:52;;;;;;;3.03;2.13;;;;;;;;;;10121422;29;20056;-77
2023/11/16 19:37:41;;;;;;;3.38;2.10;;;;;;;;;;9960849;29;20053;-78
2023/11/16 19:43:05;;;;;;;;;;;;;;;;;;;;;
2023/11/16 19:48:42;;;;;;;2.57;1.53;;;;;;;;;;10077242;29;20056;-77
2023/11/16 19:53:49;;;;;;;1.35;1.05;;;;;;;;;;10137606;29;20147;-77
2023/11/16 19:58:53;;;;;;;2.72;1.75;;;;;;;;;;10139428;29;20041;-77
2023/11/16 20:04:05;;;;;;;5.43;2.75;;;;;;;;;;10139487;29;20049;-77
2023/11/16 20:09:15;;;;;;;7.10;3.42;;;;;;;;;;10121743;29;20044;-77
2023/11/16 20:14:33;;;;;;;7.63;3.13;;;;;;;;;;10114427;29;20044;-77
2023/11/16 20:19:54;;;;;;;8.95;4.00;;;;;;;;;;10140176;29;20052;-77
2023/11/16 20:25:30;;;;;;;3.88;2.80;;;;;;;;;;10126751;29;20410;-77
2023/11/16 20:30:37;;;;;;;5.28;3.42;;;;;;;;;;10133330;29;20486;-77
2023/11/16 20:35:42;;;;;;;4.40;2.80;;;;;;;;;;10144411;29;20052;-77
2023/11/16 20:40:48;;;;;;;5.40;3.03;;;;;;;;;;10157799;29;20406;-76
2023/11/16 20:45:54;;;;;;;5.32;3.20;;;;;;;;;;10117831;29;20088;-77
2023/11/16 20:51:03;;;;;;;6.40;3.50;;;;;;;;;;10154881;29;20586;-77
2023/11/16 20:56:10;;;;;;;5.47;3.60;;;;;;;;;;10145601;29;20048;-79
2023/11/16 21:01:16;;;;;;;4.20;3.50;;;;;;;;;;10132278;29;20076;-77
2023/11/16 21:06:23;;;;;;;6.15;4.15;;;;;;;;;;10125681;29;20130;-77
2023/11/16 21:11:30;;;;;;;7.30;4.90;;;;;;;;;;10122523;29;20088;-77
2023/11/16 21:16:36;;;;;;;7.80;4.80;;;;;;;;;;10139732;29;20051;-77
2023/11/16 21:21:50;;;;;;;7.47;4.38;;;;;;;;;;10135565;29;20055;-77
2023/11/16 21:26:59;;;;;;;5.93;3.53;;;;;;;;;;10128931;29;20140;-77
2023/11/16 21:32:02;;;;;;;7.78;3.70;;;;;;;;;;10133325;29;20055;-77
2023/11/16 21:37:08;;;;;;;4.80;3.28;;;;;;;;;;10142987;29;20141;-77
2023/11/16 21:42:15;;;;;;;6.05;3.40;;;;;;;;;;10125678;29;20108;-77
2023/11/16 21:47:20;;;;;;;5.50;2.80;;;;;;;;;;10122547;29;20103;-77
2023/11/16 21:52:30;;;;;;;6.10;3.50;;;;;;;;;;10141978;29;20072;-77
2023/11/16 21:57:38;;;;;;;7.47;4.28;;;;;;;;;;10126208;29;20052;-77
2023/11/16 22:02:42;;;;;;;8.65;4.10;;;;;;;;;;10140531;29;20180;-77
2023/11/16 22:07:47;;;;;;;5.63;3.75;;;;;;;;;;10150067;29;20045;-77
2023/11/16 22:12:52;;;;;;;7.80;4.47;;;;;;;;;;10148188;29;20569;-76
2023/11/16 22:17:59;;;;;;;5.90;3.95;;;;;;;;;;10137245;29;20514;-77
2023/11/16 22:23:04;;;;;;;6.28;4.00;;;;;;;;;;10143161;29;20056;-76
2023/11/16 22:28:09;;;;;;;5.93;4.18;;;;;;;;;;10141034;29;20061;-76
2023/11/16 22:33:12;;;;;;;6.82;4.28;;;;;;;;;;10145506;29;20517;-77
2023/11/16 22:38:26;;;;;;;6.53;4.55;;;;;;;;;;10133752;29;20048;-76
2023/11/16 22:43:29;;;;;;;6.82;3.60;;;;;;;;;;10128537;29;20139;-76
2023/11/16 22:48:33;;;;;;;5.28;3.90;;;;;;;;;;10132522;29;20064;-77
2023/11/16 22:53:40;;;;;;;6.82;3.22;;;;;;;;;;10151904;29;20068;-77
2023/11/16 22:58:44;;;;;;;5.78;3.45;;;;;;;;;;10140754;29;20060;-76
2023/11/16 23:03:51;;;;;;;4.82;3.00;;;;;;;;;;10150931;29;20052;-76
2023/11/16 23:08:59;;;;;;;4.47;2.35;;;;;;;;;;10140567;29;20059;-77
2023/11/16 23:14:23;;;;;;;4.65;2.92;;;;;;;;;;10125673;29;20128;-77
2023/11/16 23:20:10;;;;;;;3.30;2.28;;;;;;;;;;10131853;29;20466;-77
2023/11/16 23:25:30;;;;;;;4.55;2.25;;;;;;;;;;10100485;29;20371;-77
2023/11/16 23:30:48;;;;;;;;;;;;;;;;;;;;;
2023/11/16 23:43:23;;;;;;;5.85;2.58;;;;;;;;;;9898466;29;20070;-77
2023/11/16 23:49:15;;;;;;;;;;;;;;;;;;;;;
2023/11/16 23:54:36;;;;;;;2.88;2.00;;;;;;;;;;10139692;29;20123;-77
2023/11/16 23:59:42;;;;;;;3.97;2.08;;;;;;;;;;10126327;29;20056;-77
